sensor_id;sensor_type;location;lat;lon;timestamp;P1;durP1;ratioP1;P2;durP2;ratioP2
12861;SDS011;6499;66.348;14.134;2024-01-30T00:02:39;9.23;;;2.10;;
12861;SDS011;6499;66.348;14.134;2024-01-30T00:05:06;9.33;;;2.60;;
12861;SDS011;6499;66.348;14.134;2024-01-30T00:07:32;8.93;;;2.80;;
12861;SDS011;6499;66.348;14.134;2024-01-30T00:10:05;12.60;;;2.33;;
12861;SDS011;6499;66.348;14.134;2024-01-30T00:12:32;8.53;;;2.10;;
12861;SDS011;6499;66.348;14.134;2024-01-30T00:15:02;9.27;;;2.33;;
12861;SDS011;6499;66.348;14.134;2024-01-30T00:17:30;9.27;;;2.30;;
12861;SDS011;6499;66.348;14.134;2024-01-30T00:19:56;12.93;;;2.50;;
12861;SDS011;6499;66.348;14.134;2024-01-30T00:22:23;10.47;;;2.57;;
12861;SDS011;6499;66.348;14.134;2024-01-30T00:24:50;10.80;;;2.30;;
12861;SDS011;6499;66.348;14.134;2024-01-30T00:27:18;9.33;;;2.70;;
12861;SDS011;6499;66.348;14.134;2024-01-30T00:29:44;10.27;;;2.43;;
12861;SDS011;6499;66.348;14.134;2024-01-30T00:32:11;12.40;;;2.33;;
12861;SDS011;6499;66.348;14.134;2024-01-30T00:34:41;9.90;;;2.83;;
12861;SDS011;6499;66.348;14.134;2024-01-30T00:37:09;11.57;;;2.40;;
12861;SDS011;6499;66.348;14.134;2024-01-30T00:39:36;9.00;;;2.30;;
12861;SDS011;6499;66.348;14.134;2024-01-30T00:42:02;11.43;;;2.33;;
12861;SDS011;6499;66.348;14.134;2024-01-30T00:44:31;10.20;;;2.70;;
12861;SDS011;6499;66.348;14.134;2024-01-30T00:46:58;8.87;;;2.60;;
12861;SDS011;6499;66.348;14.134;2024-01-30T00:49:24;6.47;;;2.20;;
12861;SDS011;6499;66.348;14.134;2024-01-30T00:51:51;10.57;;;2.30;;
12861;SDS011;6499;66.348;14.134;2024-01-30T00:54:18;9.50;;;2.30;;
12861;SDS011;6499;66.348;14.134;2024-01-30T00:56:45;8.47;;;2.00;;
12861;SDS011;6499;66.348;14.134;2024-01-30T00:59:11;8.87;;;2.20;;
12861;SDS011;6499;66.348;14.134;2024-01-30T01:01:40;7.57;;;2.10;;
12861;SDS011;6499;66.348;14.134;2024-01-30T01:04:06;16.93;;;2.80;;
12861;SDS011;6499;66.348;14.134;2024-01-30T01:06:33;11.40;;;2.30;;
12861;SDS011;6499;66.348;14.134;2024-01-30T01:09:00;10.50;;;2.73;;
12861;SDS011;6499;66.348;14.134;2024-01-30T01:11:30;9.67;;;2.70;;
12861;SDS011;6499;66.348;14.134;2024-01-30T01:13:58;13.80;;;2.63;;
12861;SDS011;6499;66.348;14.134;2024-01-30T01:16:33;9.33;;;2.23;;
12861;SDS011;6499;66.348;14.134;2024-01-30T01:19:05;13.37;;;2.77;;
12861;SDS011;6499;66.348;14.134;2024-01-30T01:21:32;13.27;;;3.03;;
12861;SDS011;6499;66.348;14.134;2024-01-30T01:24:01;15.00;;;2.80;;
12861;SDS011;6499;66.348;14.134;2024-01-30T01:26:30;12.13;;;2.40;;
12861;SDS011;6499;66.348;14.134;2024-01-30T01:29:00;13.80;;;3.80;;
12861;SDS011;6499;66.348;14.134;2024-01-30T01:31:27;13.33;;;2.97;;
12861;SDS011;6499;66.348;14.134;2024-01-30T01:34:13;14.97;;;3.03;;
12861;SDS011;6499;66.348;14.134;2024-01-30T01:36:42;13.67;;;2.93;;
12861;SDS011;6499;66.348;14.134;2024-01-30T01:39:09;14.73;;;3.10;;
12861;SDS011;6499;66.348;14.134;2024-01-30T01:41:35;10.63;;;3.00;;
12861;SDS011;6499;66.348;14.134;2024-01-30T01:44:08;14.50;;;3.20;;
12861;SDS011;6499;66.348;14.134;2024-01-30T01:46:35;12.33;;;2.87;;
12861;SDS011;6499;66.348;14.134;2024-01-30T01:49:04;18.00;;;2.97;;
12861;SDS011;6499;66.348;14.134;2024-01-30T01:51:35;10.67;;;2.67;;
12861;SDS011;6499;66.348;14.134;2024-01-30T01:54:03;14.83;;;2.57;;
12861;SDS011;6499;66.348;14.134;2024-01-30T01:56:30;10.07;;;2.50;;
12861;SDS011;6499;66.348;14.134;2024-01-30T01:58:59;15.80;;;3.17;;
12861;SDS011;6499;66.348;14.134;2024-01-30T02:01:25;14.93;;;3.53;;
12861;SDS011;6499;66.348;14.134;2024-01-30T02:03:53;10.67;;;2.73;;
12861;SDS011;6499;66.348;14.134;2024-01-30T02:06:20;8.07;;;2.70;;
12861;SDS011;6499;66.348;14.134;2024-01-30T02:08:49;7.33;;;1.63;;
12861;SDS011;6499;66.348;14.134;2024-01-30T02:11:16;7.03;;;1.60;;
12861;SDS011;6499;66.348;14.134;2024-01-30T02:13:43;7.43;;;1.83;;
12861;SDS011;6499;66.348;14.134;2024-01-30T02:16:12;11.33;;;2.20;;
12861;SDS011;6499;66.348;14.134;2024-01-30T02:18:39;7.50;;;1.87;;
12861;SDS011;6499;66.348;14.134;2024-01-30T02:21:15;6.17;;;1.83;;
12861;SDS011;6499;66.348;14.134;2024-01-30T02:23:43;8.83;;;2.13;;
12861;SDS011;6499;66.348;14.134;2024-01-30T02:26:10;12.70;;;2.27;;
12861;SDS011;6499;66.348;14.134;2024-01-30T02:28:41;9.27;;;1.87;;
12861;SDS011;6499;66.348;14.134;2024-01-30T02:31:08;7.03;;;2.07;;
12861;SDS011;6499;66.348;14.134;2024-01-30T02:33:36;7.37;;;2.03;;
12861;SDS011;6499;66.348;14.134;2024-01-30T02:36:03;8.73;;;2.23;;
12861;SDS011;6499;66.348;14.134;2024-01-30T02:38:50;6.27;;;1.63;;
12861;SDS011;6499;66.348;14.134;2024-01-30T02:41:16;3.20;;;1.20;;
12861;SDS011;6499;66.348;14.134;2024-01-30T02:43:43;4.83;;;1.07;;
12861;SDS011;6499;66.348;14.134;2024-01-30T02:46:10;4.47;;;1.30;;
12861;SDS011;6499;66.348;14.134;2024-01-30T02:48:36;6.20;;;1.57;;
12861;SDS011;6499;66.348;14.134;2024-01-30T02:51:04;3.17;;;1.20;;
12861;SDS011;6499;66.348;14.134;2024-01-30T02:53:31;4.77;;;1.20;;
12861;SDS011;6499;66.348;14.134;2024-01-30T02:55:59;4.03;;;1.30;;
12861;SDS011;6499;66.348;14.134;2024-01-30T02:58:31;3.17;;;1.13;;
12861;SDS011;6499;66.348;14.134;2024-01-30T03:00:57;6.87;;;1.47;;
12861;SDS011;6499;66.348;14.134;2024-01-30T03:03:23;3.77;;;1.20;;
12861;SDS011;6499;66.348;14.134;2024-01-30T03:05:53;4.00;;;0.90;;
12861;SDS011;6499;66.348;14.134;2024-01-30T03:08:22;5.20;;;1.30;;
12861;SDS011;6499;66.348;14.134;2024-01-30T03:10:48;4.97;;;1.00;;
12861;SDS011;6499;66.348;14.134;2024-01-30T03:13:16;3.10;;;0.83;;
12861;SDS011;6499;66.348;14.134;2024-01-30T03:15:46;3.47;;;0.83;;
12861;SDS011;6499;66.348;14.134;2024-01-30T03:18:13;4.67;;;1.07;;
12861;SDS011;6499;66.348;14.134;2024-01-30T03:20:39;2.30;;;0.80;;
12861;SDS011;6499;66.348;14.134;2024-01-30T03:23:06;2.20;;;0.60;;
12861;SDS011;6499;66.348;14.134;2024-01-30T03:25:33;3.13;;;0.87;;
12861;SDS011;6499;66.348;14.134;2024-01-30T03:28:00;3.00;;;1.13;;
12861;SDS011;6499;66.348;14.134;2024-01-30T03:30:31;2.13;;;0.80;;
12861;SDS011;6499;66.348;14.134;2024-01-30T03:33:00;3.87;;;1.00;;
12861;SDS011;6499;66.348;14.134;2024-01-30T03:35:32;2.20;;;0.97;;
12861;SDS011;6499;66.348;14.134;2024-01-30T03:38:02;4.63;;;0.93;;
12861;SDS011;6499;66.348;14.134;2024-01-30T03:40:32;15.33;;;3.20;;
12861;SDS011;6499;66.348;14.134;2024-01-30T03:43:01;17.50;;;3.63;;
12861;SDS011;6499;66.348;14.134;2024-01-30T03:45:32;21.50;;;4.40;;
12861;SDS011;6499;66.348;14.134;2024-01-30T03:48:01;14.77;;;3.87;;
12861;SDS011;6499;66.348;14.134;2024-01-30T03:50:29;14.97;;;3.90;;
12861;SDS011;6499;66.348;14.134;2024-01-30T03:52:59;11.77;;;3.50;;
12861;SDS011;6499;66.348;14.134;2024-01-30T03:55:28;10.93;;;3.27;;
12861;SDS011;6499;66.348;14.134;2024-01-30T03:57:54;10.13;;;2.50;;
12861;SDS011;6499;66.348;14.134;2024-01-30T04:00:36;9.80;;;2.63;;
12861;SDS011;6499;66.348;14.134;2024-01-30T04:03:02;11.67;;;2.40;;
12861;SDS011;6499;66.348;14.134;2024-01-30T04:05:33;13.10;;;2.73;;
12861;SDS011;6499;66.348;14.134;2024-01-30T04:08:00;12.50;;;2.80;;
12861;SDS011;6499;66.348;14.134;2024-01-30T04:10:27;15.13;;;3.10;;
12861;SDS011;6499;66.348;14.134;2024-01-30T04:12:53;9.70;;;2.47;;
12861;SDS011;6499;66.348;14.134;2024-01-30T04:15:21;11.70;;;2.90;;
12861;SDS011;6499;66.348;14.134;2024-01-30T04:17:48;12.87;;;3.80;;
12861;SDS011;6499;66.348;14.134;2024-01-30T04:20:15;15.93;;;3.20;;
12861;SDS011;6499;66.348;14.134;2024-01-30T04:22:42;12.47;;;3.10;;
12861;SDS011;6499;66.348;14.134;2024-01-30T04:25:09;13.10;;;3.20;;
12861;SDS011;6499;66.348;14.134;2024-01-30T04:27:36;12.83;;;3.30;;
12861;SDS011;6499;66.348;14.134;2024-01-30T04:30:11;12.37;;;3.10;;
12861;SDS011;6499;66.348;14.134;2024-01-30T04:32:43;14.93;;;3.87;;
12861;SDS011;6499;66.348;14.134;2024-01-30T04:41:12;20.07;;;4.03;;
12861;SDS011;6499;66.348;14.134;2024-01-30T04:43:39;14.97;;;3.77;;
12861;SDS011;6499;66.348;14.134;2024-01-30T04:46:06;19.67;;;4.93;;
12861;SDS011;6499;66.348;14.134;2024-01-30T04:48:32;11.73;;;3.23;;
12861;SDS011;6499;66.348;14.134;2024-01-30T04:50:59;13.73;;;3.67;;
12861;SDS011;6499;66.348;14.134;2024-01-30T04:53:32;15.63;;;3.63;;
12861;SDS011;6499;66.348;14.134;2024-01-30T04:55:59;14.13;;;3.33;;
12861;SDS011;6499;66.348;14.134;2024-01-30T04:58:27;16.67;;;3.57;;
12861;SDS011;6499;66.348;14.134;2024-01-30T05:00:53;17.37;;;3.83;;
12861;SDS011;6499;66.348;14.134;2024-01-30T05:03:20;15.03;;;3.70;;
12861;SDS011;6499;66.348;14.134;2024-01-30T05:05:48;14.83;;;4.27;;
12861;SDS011;6499;66.348;14.134;2024-01-30T05:08:15;20.73;;;4.23;;
12861;SDS011;6499;66.348;14.134;2024-01-30T05:10:41;20.03;;;4.37;;
12861;SDS011;6499;66.348;14.134;2024-01-30T05:13:11;15.27;;;4.33;;
12861;SDS011;6499;66.348;14.134;2024-01-30T05:15:40;20.03;;;4.87;;
12861;SDS011;6499;66.348;14.134;2024-01-30T05:18:07;22.37;;;4.50;;
12861;SDS011;6499;66.348;14.134;2024-01-30T05:20:34;22.30;;;4.63;;
12861;SDS011;6499;66.348;14.134;2024-01-30T05:23:01;20.60;;;4.77;;
12861;SDS011;6499;66.348;14.134;2024-01-30T05:25:28;20.33;;;5.40;;
12861;SDS011;6499;66.348;14.134;2024-01-30T05:27:54;17.23;;;4.70;;
12861;SDS011;6499;66.348;14.134;2024-01-30T05:30:21;20.73;;;4.87;;
12861;SDS011;6499;66.348;14.134;2024-01-30T05:32:49;20.73;;;5.17;;
12861;SDS011;6499;66.348;14.134;2024-01-30T05:35:16;21.57;;;4.50;;
12861;SDS011;6499;66.348;14.134;2024-01-30T05:37:43;23.40;;;5.80;;
12861;SDS011;6499;66.348;14.134;2024-01-30T05:40:11;19.03;;;5.17;;
12861;SDS011;6499;66.348;14.134;2024-01-30T05:42:38;19.50;;;5.00;;
12861;SDS011;6499;66.348;14.134;2024-01-30T05:45:05;17.93;;;4.93;;
12861;SDS011;6499;66.348;14.134;2024-01-30T05:47:31;20.47;;;4.47;;
12861;SDS011;6499;66.348;14.134;2024-01-30T05:50:00;20.47;;;4.47;;
12861;SDS011;6499;66.348;14.134;2024-01-30T05:52:28;22.20;;;4.33;;
12861;SDS011;6499;66.348;14.134;2024-01-30T05:54:55;25.43;;;5.33;;
12861;SDS011;6499;66.348;14.134;2024-01-30T05:57:34;16.87;;;4.43;;
12861;SDS011;6499;66.348;14.134;2024-01-30T06:00:05;22.60;;;4.70;;
12861;SDS011;6499;66.348;14.134;2024-01-30T06:02:35;16.37;;;5.07;;
12861;SDS011;6499;66.348;14.134;2024-01-30T06:05:07;27.70;;;5.20;;
12861;SDS011;6499;66.348;14.134;2024-01-30T06:07:34;20.73;;;4.13;;
12861;SDS011;6499;66.348;14.134;2024-01-30T06:10:00;17.63;;;4.87;;
12861;SDS011;6499;66.348;14.134;2024-01-30T06:12:27;14.40;;;3.90;;
12861;SDS011;6499;66.348;14.134;2024-01-30T06:14:53;18.53;;;4.67;;
12861;SDS011;6499;66.348;14.134;2024-01-30T06:17:22;20.07;;;4.73;;
12861;SDS011;6499;66.348;14.134;2024-01-30T06:19:48;17.67;;;4.30;;
12861;SDS011;6499;66.348;14.134;2024-01-30T06:22:17;19.17;;;4.60;;
12861;SDS011;6499;66.348;14.134;2024-01-30T06:24:44;18.17;;;3.53;;
12861;SDS011;6499;66.348;14.134;2024-01-30T06:27:16;18.43;;;4.43;;
12861;SDS011;6499;66.348;14.134;2024-01-30T06:29:45;14.30;;;3.53;;
12861;SDS011;6499;66.348;14.134;2024-01-30T06:32:14;16.37;;;4.23;;
12861;SDS011;6499;66.348;14.134;2024-01-30T06:34:41;16.60;;;3.30;;
12861;SDS011;6499;66.348;14.134;2024-01-30T06:37:10;14.37;;;2.73;;
12861;SDS011;6499;66.348;14.134;2024-01-30T06:39:38;8.97;;;2.77;;
12861;SDS011;6499;66.348;14.134;2024-01-30T06:42:05;11.63;;;2.77;;
12861;SDS011;6499;66.348;14.134;2024-01-30T06:44:32;7.53;;;2.43;;
12861;SDS011;6499;66.348;14.134;2024-01-30T06:46:58;10.70;;;2.60;;
12861;SDS011;6499;66.348;14.134;2024-01-30T06:49:25;9.27;;;2.73;;
12861;SDS011;6499;66.348;14.134;2024-01-30T06:51:53;13.27;;;2.53;;
12861;SDS011;6499;66.348;14.134;2024-01-30T06:54:44;15.60;;;3.33;;
12861;SDS011;6499;66.348;14.134;2024-01-30T06:57:10;19.47;;;3.83;;
12861;SDS011;6499;66.348;14.134;2024-01-30T06:59:39;21.15;;;5.18;;
12861;SDS011;6499;66.348;14.134;2024-01-30T07:02:08;15.50;;;4.17;;
12861;SDS011;6499;66.348;14.134;2024-01-30T07:04:35;19.03;;;4.47;;
12861;SDS011;6499;66.348;14.134;2024-01-30T07:07:08;13.53;;;4.97;;
12861;SDS011;6499;66.348;14.134;2024-01-30T07:09:39;20.97;;;4.17;;
12861;SDS011;6499;66.348;14.134;2024-01-30T07:12:10;24.60;;;5.20;;
12861;SDS011;6499;66.348;14.134;2024-01-30T07:14:38;23.33;;;4.73;;
12861;SDS011;6499;66.348;14.134;2024-01-30T07:17:04;18.47;;;4.43;;
12861;SDS011;6499;66.348;14.134;2024-01-30T07:19:31;19.50;;;5.13;;
12861;SDS011;6499;66.348;14.134;2024-01-30T07:21:57;19.13;;;4.33;;
12861;SDS011;6499;66.348;14.134;2024-01-30T07:24:24;23.67;;;4.80;;
12861;SDS011;6499;66.348;14.134;2024-01-30T07:26:51;21.10;;;5.10;;
12861;SDS011;6499;66.348;14.134;2024-01-30T07:29:18;21.87;;;4.80;;
12861;SDS011;6499;66.348;14.134;2024-01-30T07:31:45;24.53;;;4.97;;
12861;SDS011;6499;66.348;14.134;2024-01-30T07:34:12;21.37;;;4.83;;
12861;SDS011;6499;66.348;14.134;2024-01-30T07:36:38;21.47;;;5.47;;
12861;SDS011;6499;66.348;14.134;2024-01-30T07:39:05;22.13;;;5.23;;
12861;SDS011;6499;66.348;14.134;2024-01-30T07:41:32;19.77;;;5.10;;
12861;SDS011;6499;66.348;14.134;2024-01-30T07:44:00;22.90;;;5.57;;
12861;SDS011;6499;66.348;14.134;2024-01-30T07:46:28;21.87;;;5.07;;
12861;SDS011;6499;66.348;14.134;2024-01-30T07:48:55;25.27;;;4.47;;
12861;SDS011;6499;66.348;14.134;2024-01-30T07:51:22;23.03;;;5.30;;
12861;SDS011;6499;66.348;14.134;2024-01-30T07:53:48;18.90;;;4.13;;
12861;SDS011;6499;66.348;14.134;2024-01-30T07:56:15;19.90;;;5.37;;
12861;SDS011;6499;66.348;14.134;2024-01-30T07:58:42;17.50;;;5.30;;
12861;SDS011;6499;66.348;14.134;2024-01-30T08:01:09;21.43;;;4.70;;
12861;SDS011;6499;66.348;14.134;2024-01-30T08:03:38;19.17;;;5.03;;
12861;SDS011;6499;66.348;14.134;2024-01-30T08:06:09;22.23;;;5.10;;
12861;SDS011;6499;66.348;14.134;2024-01-30T08:08:36;18.77;;;3.90;;
12861;SDS011;6499;66.348;14.134;2024-01-30T08:11:03;21.30;;;4.80;;
12861;SDS011;6499;66.348;14.134;2024-01-30T08:13:30;23.90;;;4.53;;
12861;SDS011;6499;66.348;14.134;2024-01-30T08:15:57;18.93;;;4.27;;
12861;SDS011;6499;66.348;14.134;2024-01-30T08:18:24;18.07;;;4.50;;
12861;SDS011;6499;66.348;14.134;2024-01-30T08:26:50;15.43;;;4.03;;
12861;SDS011;6499;66.348;14.134;2024-01-30T08:29:16;16.13;;;4.37;;
12861;SDS011;6499;66.348;14.134;2024-01-30T08:31:43;18.00;;;4.87;;
12861;SDS011;6499;66.348;14.134;2024-01-30T08:34:11;19.67;;;4.70;;
12861;SDS011;6499;66.348;14.134;2024-01-30T08:36:38;17.60;;;4.40;;
12861;SDS011;6499;66.348;14.134;2024-01-30T08:39:04;17.80;;;4.67;;
12861;SDS011;6499;66.348;14.134;2024-01-30T08:41:31;17.70;;;4.73;;
12861;SDS011;6499;66.348;14.134;2024-01-30T08:44:00;16.13;;;4.10;;
12861;SDS011;6499;66.348;14.134;2024-01-30T08:46:26;16.00;;;4.60;;
12861;SDS011;6499;66.348;14.134;2024-01-30T08:48:53;23.00;;;5.20;;
12861;SDS011;6499;66.348;14.134;2024-01-30T08:51:19;16.03;;;4.90;;
12861;SDS011;6499;66.348;14.134;2024-01-30T08:53:47;19.43;;;5.53;;
12861;SDS011;6499;66.348;14.134;2024-01-30T08:56:14;18.93;;;4.23;;
12861;SDS011;6499;66.348;14.134;2024-01-30T08:58:41;20.73;;;4.20;;
12861;SDS011;6499;66.348;14.134;2024-01-30T09:01:09;15.77;;;4.43;;
12861;SDS011;6499;66.348;14.134;2024-01-30T09:03:36;19.97;;;4.60;;
12861;SDS011;6499;66.348;14.134;2024-01-30T09:06:07;22.87;;;5.40;;
12861;SDS011;6499;66.348;14.134;2024-01-30T09:08:34;19.70;;;4.33;;
12861;SDS011;6499;66.348;14.134;2024-01-30T09:11:01;17.90;;;4.50;;
12861;SDS011;6499;66.348;14.134;2024-01-30T09:13:27;18.27;;;3.90;;
12861;SDS011;6499;66.348;14.134;2024-01-30T09:15:57;19.43;;;4.10;;
12861;SDS011;6499;66.348;14.134;2024-01-30T09:18:26;21.63;;;4.80;;
12861;SDS011;6499;66.348;14.134;2024-01-30T09:20:53;15.03;;;3.90;;
12861;SDS011;6499;66.348;14.134;2024-01-30T09:23:21;17.40;;;4.27;;
12861;SDS011;6499;66.348;14.134;2024-01-30T09:25:48;14.63;;;4.00;;
12861;SDS011;6499;66.348;14.134;2024-01-30T09:28:20;16.13;;;3.53;;
12861;SDS011;6499;66.348;14.134;2024-01-30T09:30:47;18.47;;;4.03;;
12861;SDS011;6499;66.348;14.134;2024-01-30T09:33:13;11.73;;;3.10;;
12861;SDS011;6499;66.348;14.134;2024-01-30T09:35:42;10.53;;;3.13;;
12861;SDS011;6499;66.348;14.134;2024-01-30T09:38:08;15.30;;;3.47;;
12861;SDS011;6499;66.348;14.134;2024-01-30T09:40:36;13.83;;;3.83;;
12861;SDS011;6499;66.348;14.134;2024-01-30T09:43:03;18.47;;;3.30;;
12861;SDS011;6499;66.348;14.134;2024-01-30T09:45:30;11.00;;;3.27;;
12861;SDS011;6499;66.348;14.134;2024-01-30T09:47:59;14.10;;;3.63;;
12861;SDS011;6499;66.348;14.134;2024-01-30T09:50:25;14.67;;;3.10;;
12861;SDS011;6499;66.348;14.134;2024-01-30T09:52:54;12.80;;;3.37;;
12861;SDS011;6499;66.348;14.134;2024-01-30T09:55:21;16.17;;;3.33;;
12861;SDS011;6499;66.348;14.134;2024-01-30T09:57:48;13.43;;;3.50;;
12861;SDS011;6499;66.348;14.134;2024-01-30T10:00:15;15.67;;;4.13;;
12861;SDS011;6499;66.348;14.134;2024-01-30T10:02:42;15.07;;;3.73;;
12861;SDS011;6499;66.348;14.134;2024-01-30T10:05:09;14.87;;;3.80;;
12861;SDS011;6499;66.348;14.134;2024-01-30T10:07:37;10.33;;;3.17;;
12861;SDS011;6499;66.348;14.134;2024-01-30T10:10:06;14.27;;;3.07;;
12861;SDS011;6499;66.348;14.134;2024-01-30T10:12:33;11.37;;;3.30;;
12861;SDS011;6499;66.348;14.134;2024-01-30T10:15:00;12.83;;;3.07;;
12861;SDS011;6499;66.348;14.134;2024-01-30T10:17:26;14.57;;;3.17;;
12861;SDS011;6499;66.348;14.134;2024-01-30T10:19:53;11.80;;;2.67;;
12861;SDS011;6499;66.348;14.134;2024-01-30T10:22:21;13.37;;;2.93;;
12861;SDS011;6499;66.348;14.134;2024-01-30T10:24:50;6.57;;;2.00;;
12861;SDS011;6499;66.348;14.134;2024-01-30T10:27:25;9.30;;;2.53;;
12861;SDS011;6499;66.348;14.134;2024-01-30T10:29:54;10.47;;;2.50;;
12861;SDS011;6499;66.348;14.134;2024-01-30T10:32:21;10.17;;;2.73;;
12861;SDS011;6499;66.348;14.134;2024-01-30T10:34:47;7.63;;;1.80;;
12861;SDS011;6499;66.348;14.134;2024-01-30T10:37:14;5.17;;;2.27;;
12861;SDS011;6499;66.348;14.134;2024-01-30T10:39:42;7.00;;;1.60;;
12861;SDS011;6499;66.348;14.134;2024-01-30T10:42:10;9.97;;;2.47;;
12861;SDS011;6499;66.348;14.134;2024-01-30T10:44:48;7.90;;;2.40;;
12861;SDS011;6499;66.348;14.134;2024-01-30T10:47:25;11.40;;;2.80;;
12861;SDS011;6499;66.348;14.134;2024-01-30T10:49:52;12.97;;;3.17;;
12861;SDS011;6499;66.348;14.134;2024-01-30T10:52:20;15.70;;;3.27;;
12861;SDS011;6499;66.348;14.134;2024-01-30T10:54:46;11.50;;;2.83;;
12861;SDS011;6499;66.348;14.134;2024-01-30T10:57:13;12.50;;;3.23;;
12861;SDS011;6499;66.348;14.134;2024-01-30T10:59:43;16.23;;;3.03;;
12861;SDS011;6499;66.348;14.134;2024-01-30T11:02:10;12.97;;;3.30;;
12861;SDS011;6499;66.348;14.134;2024-01-30T11:04:37;14.13;;;3.43;;
12861;SDS011;6499;66.348;14.134;2024-01-30T11:07:13;12.20;;;3.23;;
12861;SDS011;6499;66.348;14.134;2024-01-30T11:09:40;14.40;;;3.40;;
12861;SDS011;6499;66.348;14.134;2024-01-30T11:12:13;16.83;;;4.00;;
12861;SDS011;6499;66.348;14.134;2024-01-30T11:14:40;10.23;;;2.70;;
12861;SDS011;6499;66.348;14.134;2024-01-30T11:17:08;7.50;;;2.00;;
12861;SDS011;6499;66.348;14.134;2024-01-30T11:19:41;8.40;;;2.50;;
12861;SDS011;6499;66.348;14.134;2024-01-30T11:22:07;8.90;;;3.00;;
12861;SDS011;6499;66.348;14.134;2024-01-30T11:24:39;9.93;;;2.67;;
12861;SDS011;6499;66.348;14.134;2024-01-30T11:27:07;9.57;;;2.30;;
12861;SDS011;6499;66.348;14.134;2024-01-30T11:29:34;8.80;;;2.03;;
12861;SDS011;6499;66.348;14.134;2024-01-30T11:32:01;7.83;;;2.40;;
12861;SDS011;6499;66.348;14.134;2024-01-30T11:34:29;8.50;;;2.37;;
12861;SDS011;6499;66.348;14.134;2024-01-30T11:36:56;7.17;;;1.83;;
12861;SDS011;6499;66.348;14.134;2024-01-30T11:39:24;9.73;;;3.10;;
12861;SDS011;6499;66.348;14.134;2024-01-30T11:41:51;11.27;;;2.60;;
12861;SDS011;6499;66.348;14.134;2024-01-30T11:44:18;8.03;;;1.67;;
12861;SDS011;6499;66.348;14.134;2024-01-30T11:46:46;11.83;;;2.33;;
12861;SDS011;6499;66.348;14.134;2024-01-30T11:49:12;10.53;;;2.70;;
12861;SDS011;6499;66.348;14.134;2024-01-30T11:51:41;8.27;;;2.67;;
12861;SDS011;6499;66.348;14.134;2024-01-30T11:54:07;15.33;;;3.43;;
12861;SDS011;6499;66.348;14.134;2024-01-30T11:56:34;18.27;;;3.13;;
12861;SDS011;6499;66.348;14.134;2024-01-30T11:59:01;8.37;;;2.53;;
12861;SDS011;6499;66.348;14.134;2024-01-30T12:01:27;12.43;;;3.17;;
12861;SDS011;6499;66.348;14.134;2024-01-30T12:03:54;11.80;;;2.67;;
12861;SDS011;6499;66.348;14.134;2024-01-30T12:06:22;10.50;;;2.63;;
12861;SDS011;6499;66.348;14.134;2024-01-30T12:08:58;10.43;;;2.53;;
12861;SDS011;6499;66.348;14.134;2024-01-30T12:11:25;10.03;;;2.33;;
12861;SDS011;6499;66.348;14.134;2024-01-30T12:13:52;14.27;;;2.67;;
12861;SDS011;6499;66.348;14.134;2024-01-30T12:16:18;8.40;;;2.27;;
12861;SDS011;6499;66.348;14.134;2024-01-30T12:18:45;6.10;;;1.80;;
12861;SDS011;6499;66.348;14.134;2024-01-30T12:21:12;8.73;;;1.77;;
12861;SDS011;6499;66.348;14.134;2024-01-30T12:23:38;7.47;;;2.10;;
12861;SDS011;6499;66.348;14.134;2024-01-30T12:26:07;10.97;;;2.33;;
12861;SDS011;6499;66.348;14.134;2024-01-30T12:28:34;7.37;;;1.80;;
12861;SDS011;6499;66.348;14.134;2024-01-30T12:31:01;8.90;;;2.07;;
12861;SDS011;6499;66.348;14.134;2024-01-30T12:33:28;8.27;;;1.73;;
12861;SDS011;6499;66.348;14.134;2024-01-30T12:35:57;9.47;;;1.97;;
12861;SDS011;6499;66.348;14.134;2024-01-30T12:38:30;5.80;;;1.80;;
12861;SDS011;6499;66.348;14.134;2024-01-30T12:40:57;5.77;;;2.03;;
12861;SDS011;6499;66.348;14.134;2024-01-30T12:43:25;7.63;;;2.10;;
12861;SDS011;6499;66.348;14.134;2024-01-30T12:45:54;7.40;;;1.93;;
12861;SDS011;6499;66.348;14.134;2024-01-30T12:48:20;10.03;;;2.23;;
12861;SDS011;6499;66.348;14.134;2024-01-30T12:50:47;9.77;;;2.30;;
12861;SDS011;6499;66.348;14.134;2024-01-30T12:53:14;8.17;;;2.40;;
12861;SDS011;6499;66.348;14.134;2024-01-30T12:55:41;11.90;;;3.07;;
12861;SDS011;6499;66.348;14.134;2024-01-30T12:58:08;9.27;;;2.83;;
12861;SDS011;6499;66.348;14.134;2024-01-30T13:00:36;9.93;;;2.43;;
12861;SDS011;6499;66.348;14.134;2024-01-30T13:03:02;8.83;;;2.03;;
12861;SDS011;6499;66.348;14.134;2024-01-30T13:05:32;10.43;;;2.37;;
12861;SDS011;6499;66.348;14.134;2024-01-30T13:07:58;10.87;;;2.57;;
12861;SDS011;6499;66.348;14.134;2024-01-30T13:10:25;10.70;;;3.67;;
12861;SDS011;6499;66.348;14.134;2024-01-30T13:12:55;7.97;;;2.40;;
12861;SDS011;6499;66.348;14.134;2024-01-30T13:15:22;11.43;;;2.80;;
12861;SDS011;6499;66.348;14.134;2024-01-30T13:17:50;11.17;;;3.47;;
12861;SDS011;6499;66.348;14.134;2024-01-30T13:20:19;14.83;;;2.83;;
12861;SDS011;6499;66.348;14.134;2024-01-30T13:22:47;12.87;;;2.83;;
12861;SDS011;6499;66.348;14.134;2024-01-30T13:25:13;12.23;;;3.10;;
12861;SDS011;6499;66.348;14.134;2024-01-30T13:27:40;13.80;;;3.30;;
12861;SDS011;6499;66.348;14.134;2024-01-30T13:30:07;12.53;;;3.27;;
12861;SDS011;6499;66.348;14.134;2024-01-30T13:32:35;9.97;;;2.57;;
12861;SDS011;6499;66.348;14.134;2024-01-30T13:35:03;14.97;;;2.77;;
12861;SDS011;6499;66.348;14.134;2024-01-30T13:37:30;9.90;;;2.13;;
12861;SDS011;6499;66.348;14.134;2024-01-30T13:39:58;7.97;;;1.83;;
12861;SDS011;6499;66.348;14.134;2024-01-30T13:42:25;6.93;;;2.17;;
12861;SDS011;6499;66.348;14.134;2024-01-30T13:44:52;7.37;;;2.00;;
12861;SDS011;6499;66.348;14.134;2024-01-30T13:47:18;7.00;;;2.03;;
12861;SDS011;6499;66.348;14.134;2024-01-30T13:49:55;7.93;;;1.67;;
12861;SDS011;6499;66.348;14.134;2024-01-30T13:52:23;6.30;;;1.80;;
12861;SDS011;6499;66.348;14.134;2024-01-30T13:54:50;14.00;;;3.10;;
12861;SDS011;6499;66.348;14.134;2024-01-30T13:57:16;5.97;;;1.50;;
12861;SDS011;6499;66.348;14.134;2024-01-30T13:59:43;8.13;;;2.47;;
12861;SDS011;6499;66.348;14.134;2024-01-30T14:02:10;6.03;;;1.70;;
12861;SDS011;6499;66.348;14.134;2024-01-30T14:04:36;7.57;;;1.87;;
12861;SDS011;6499;66.348;14.134;2024-01-30T14:07:03;8.27;;;1.73;;
12861;SDS011;6499;66.348;14.134;2024-01-30T14:09:32;6.50;;;1.73;;
12861;SDS011;6499;66.348;14.134;2024-01-30T14:11:59;7.00;;;2.13;;
12861;SDS011;6499;66.348;14.134;2024-01-30T14:14:26;7.23;;;1.90;;
12861;SDS011;6499;66.348;14.134;2024-01-30T14:16:52;5.93;;;1.67;;
12861;SDS011;6499;66.348;14.134;2024-01-30T14:19:22;6.60;;;1.47;;
12861;SDS011;6499;66.348;14.134;2024-01-30T14:21:49;6.83;;;1.70;;
12861;SDS011;6499;66.348;14.134;2024-01-30T14:24:15;5.17;;;1.50;;
12861;SDS011;6499;66.348;14.134;2024-01-30T14:26:46;8.40;;;1.60;;
12861;SDS011;6499;66.348;14.134;2024-01-30T14:29:12;5.33;;;1.10;;
12861;SDS011;6499;66.348;14.134;2024-01-30T14:31:39;3.90;;;1.00;;
12861;SDS011;6499;66.348;14.134;2024-01-30T14:34:05;2.73;;;0.90;;
12861;SDS011;6499;66.348;14.134;2024-01-30T14:36:33;2.47;;;0.87;;
12861;SDS011;6499;66.348;14.134;2024-01-30T14:39:00;4.17;;;1.20;;
12861;SDS011;6499;66.348;14.134;2024-01-30T14:41:26;2.90;;;1.00;;
12861;SDS011;6499;66.348;14.134;2024-01-30T14:43:55;3.10;;;1.23;;
12861;SDS011;6499;66.348;14.134;2024-01-30T14:46:21;2.60;;;0.80;;
12861;SDS011;6499;66.348;14.134;2024-01-30T14:48:48;2.57;;;0.80;;
12861;SDS011;6499;66.348;14.134;2024-01-30T14:51:16;4.77;;;1.30;;
12861;SDS011;6499;66.348;14.134;2024-01-30T14:53:43;2.57;;;1.00;;
12861;SDS011;6499;66.348;14.134;2024-01-30T14:56:09;4.00;;;0.87;;